Todos
Taylor Airport (Taylor, AZ) TYL Condições meteorológicas
|
Taylor, AZ (KTYL)
Céu Limpo
Vento Ligeiro |
|
26 °C |
There is no TAF data available at TYL or any nearby airports.
Histórico recente de METAR TYL
| Date | Time (MST) | Flight Rules | Wind Dir. | Speed | Type | Height AGL (ft) | Visibility | Temp (°C) | Temp (°F) | Dew Point (°C) | Dew Point (°F) | Rel. Humid. | Pressure | Density Altitude | Remarks |
|---|---|---|---|---|---|---|---|---|---|---|---|---|---|---|---|
| 01-Set | 18:15 | VFR | 230° | 10 kt | 10 miles | 26° | 78° | 7° | 44° | 30% | 30.20 in Hg | 8.051 ft | Wind gusting to 16 KT | ||
| 01-Set | 17:55 | VFR | Calm | 10 miles | 27° | 80° | 7° | 44° | 28% | 30.20 in Hg | 8.171 ft | ||||
| 01-Set | 17:35 | VFR | 230° | 11 kt | 10 miles | 27° | 80° | 8° | 46° | 30% | 30.20 in Hg | 8.171 ft | Wind gusting to 18 KT | ||
| 01-Set | 17:15 | VFR | 210° | 13 kt | 10 miles | 27° | 80° | 7° | 44° | 28% | 30.19 in Hg | 8.181 ft | |||
| 01-Set | 16:55 | VFR | 220° | 13 kt | 10 miles | 28° | 82° | 7° | 44° | 27% | 30.19 in Hg | 8.301 ft | Wind gusting to 19 KT | ||
| 01-Set | 16:35 | VFR | 210° | 8 kt | 10 miles | 29° | 84° | 5° | 41° | 22% | 30.19 in Hg | 8.421 ft | |||
| 01-Set | 16:15 | VFR | 140° | 3 kt | 10 miles | 28° | 82° | 7° | 44° | 27% | 30.19 in Hg | 8.301 ft | |||
| 01-Set | 15:55 | VFR | 10° | 3 kt | 10 miles | 27° | 80° | 7° | 44° | 28% | 30.20 in Hg | 8.171 ft | |||
| 01-Set | 15:35 | VFR | 360° | 5 kt | 10 miles | 27° | 80° | 7° | 44° | 28% | 30.21 in Hg | 8.161 ft | |||
| 01-Set | 15:15 | VFR | 50° | 6 kt | 10 miles | 28° | 82° | 7° | 44° | 27% | 30.21 in Hg | 8.281 ft | |||
| 01-Set | 14:55 | VFR | 30° | 9 kt | 10 miles | 28° | 82° | 7° | 44° | 27% | 30.21 in Hg | 8.281 ft | |||
| 01-Set | 14:35 | VFR | 10° | 5 kt | 10 miles | 26° | 78° | 7° | 44° | 30% | 30.23 in Hg | 8.021 ft | |||
| 01-Set | 14:15 | VFR | 80° | 6 kt | 10 miles | 27° | 80° | 7° | 44° | 28% | 30.23 in Hg | 8.141 ft | |||
| 01-Set | 13:55 | VFR | 170° | 4 kt | 10 miles | 28° | 82° | 8° | 46° | 28% | 30.24 in Hg | 8.251 ft | |||
| 01-Set | 13:35 | VFR | 100° | 4 kt | 10 miles | 27° | 80° | 7° | 44° | 28% | 30.25 in Hg | 8.121 ft | |||
| 01-Set | 13:15 | VFR | 130° | 5 kt | 10 miles | 27° | 80° | 8° | 46° | 30% | 30.26 in Hg | 8.111 ft | |||
| 01-Set | 12:55 | VFR | 90° | 4 kt | 10 miles | 25° | 77° | 8° | 46° | 34% | 30.27 in Hg | 7.861 ft | |||
| 01-Set | 12:35 | VFR | 40° | 3 kt | 10 miles | 25° | 77° | 9° | 48° | 36% | 30.27 in Hg | 7.861 ft | |||
| 01-Set | 12:15 | VFR | Calm | 10 miles | 25° | 77° | 10° | 50° | 39% | 30.28 in Hg | 7.851 ft | ||||
| 01-Set | 11:55 | VFR | 120° | 6 kt | 10 miles | 25° | 77° | 12° | 53° | 44% | 30.28 in Hg | 7.851 ft | |||
| 01-Set | 11:35 | VFR | 350° | 5 kt | 10 miles | 24° | 75° | 12° | 53° | 47% | 30.29 in Hg | 7.721 ft | |||
| 01-Set | 11:15 | VFR | 320° | 4 kt | 10 miles | 24° | 75° | 12° | 53° | 47% | 30.30 in Hg | 7.711 ft | |||
| 01-Set | 10:55 | VFR | 350° | 5 kt | 10 miles | 24° | 75° | 12° | 53° | 47% | 30.30 in Hg | 7.711 ft | |||
| 01-Set | 10:35 | VFR | 20° | 4 kt | 10 miles | 23° | 73° | 12° | 53° | 50% | 30.31 in Hg | 7.581 ft |
Entrar
| Seu navegador não suporta. atualize seu navegador |
